createdAt,value
2023-05-02T00:00:45.595Z,17.56
2023-05-02T00:03:18.722Z,17.53
2023-05-02T00:05:49.128Z,17.49
2023-05-02T00:08:19.803Z,17.46
2023-05-02T00:10:49.943Z,17.41
2023-05-02T00:13:20.157Z,17.35
2023-05-02T00:15:50.232Z,17.35
2023-05-02T00:18:24.343Z,17.33
2023-05-02T00:20:54.520Z,17.33
2023-05-02T00:23:24.687Z,17.28
2023-05-02T00:25:54.779Z,17.18
2023-05-02T00:28:26.688Z,17.12
2023-05-02T00:30:56.831Z,17.06
2023-05-02T00:33:29.584Z,16.99
2023-05-02T00:35:59.631Z,16.88
2023-05-02T00:38:29.727Z,16.80
2023-05-02T00:40:59.849Z,16.78
2023-05-02T00:43:33.781Z,16.78
2023-05-02T00:46:03.848Z,16.76
2023-05-02T00:48:36.837Z,16.72
2023-05-02T00:51:08.922Z,16.69
2023-05-02T00:53:39.124Z,16.66
2023-05-02T00:56:11.161Z,16.61
2023-05-02T00:58:42.973Z,16.58
2023-05-02T01:01:27.330Z,16.56
2023-05-02T01:04:25.447Z,16.57
2023-05-02T01:07:08.973Z,16.56
2023-05-02T01:09:59.403Z,16.56
2023-05-02T01:12:34.320Z,16.55
2023-05-02T01:15:10.832Z,16.59
2023-05-02T01:17:43.178Z,16.56
2023-05-02T01:20:20.296Z,16.58
2023-05-02T01:22:51.770Z,16.61
2023-05-02T01:25:30.649Z,16.66
2023-05-02T01:28:21.455Z,16.69
2023-05-02T01:30:56.729Z,16.69
2023-05-02T01:33:31.349Z,16.66
2023-05-02T01:36:03.775Z,16.60
2023-05-02T01:38:36.625Z,16.61
2023-05-02T01:41:08.233Z,16.66
2023-05-02T01:43:41.673Z,16.70
2023-05-02T01:46:17.975Z,16.72
2023-05-02T01:48:51.011Z,16.72
2023-05-02T01:51:23.720Z,16.70
2023-05-02T01:53:55.987Z,16.70
2023-05-02T01:56:28.217Z,16.74
2023-05-02T01:59:00.421Z,16.78
2023-05-02T02:01:33.921Z,16.76
2023-05-02T02:04:05.029Z,16.76
2023-05-02T02:06:35.834Z,16.71
2023-05-02T02:09:06.808Z,16.68
2023-05-02T02:11:40.464Z,16.60
2023-05-02T02:14:17.905Z,16.54
2023-05-02T02:16:52.878Z,16.56
2023-05-02T02:19:24.426Z,16.55
2023-05-02T02:21:56.939Z,16.55
2023-05-02T02:24:27.812Z,16.57
2023-05-02T02:26:58.081Z,16.56
2023-05-02T02:29:28.362Z,16.56
2023-05-02T02:32:01.035Z,16.56
2023-05-02T02:34:33.423Z,16.62
2023-05-02T02:37:08.388Z,16.60
2023-05-02T02:39:47.657Z,16.56
2023-05-02T02:42:27.775Z,16.54
2023-05-02T02:45:07.821Z,16.51
2023-05-02T02:47:46.979Z,16.45
2023-05-02T02:50:23.115Z,16.42
2023-05-02T02:52:58.947Z,16.42
2023-05-02T02:55:39.693Z,16.39
2023-05-02T02:58:24.579Z,16.37
2023-05-02T03:00:56.092Z,16.35
2023-05-02T03:03:31.451Z,16.33
2023-05-02T03:06:02.848Z,16.33
2023-05-02T03:08:42.096Z,16.29
2023-05-02T03:11:16.603Z,16.27
2023-05-02T03:13:47.488Z,16.21
2023-05-02T03:16:38.717Z,16.18
2023-05-02T03:19:15.376Z,16.13
2023-05-02T03:21:45.603Z,16.02
2023-05-02T03:24:21.305Z,16.00
2023-05-02T03:26:52.190Z,16.00
2023-05-02T03:29:28.851Z,15.93
2023-05-02T03:31:59.042Z,15.86
2023-05-02T03:34:31.749Z,15.80
2023-05-02T03:37:02.239Z,15.77
2023-05-02T03:39:33.726Z,15.77
2023-05-02T03:42:05.752Z,15.75
2023-05-02T03:44:35.858Z,15.70
2023-05-02T03:47:06.021Z,15.69
2023-05-02T03:49:43.639Z,15.63
2023-05-02T03:52:14.609Z,15.53
2023-05-02T03:54:51.996Z,15.45
2023-05-02T03:57:22.488Z,15.44
2023-05-02T03:59:53.345Z,15.49
2023-05-02T04:02:30.330Z,15.46
2023-05-02T04:05:04.141Z,15.46
2023-05-02T04:07:34.857Z,15.42
2023-05-02T04:10:16.425Z,15.39
2023-05-02T04:12:50.068Z,15.44
2023-05-02T04:15:21.585Z,15.53
2023-05-02T04:17:53.717Z,15.60
2023-05-02T04:20:33.676Z,15.62
2023-05-02T04:23:04.005Z,15.73
2023-05-02T04:25:34.906Z,15.87
2023-05-02T04:28:09.633Z,16.05
2023-05-02T04:30:40.057Z,16.11
2023-05-02T04:33:16.409Z,16.09
2023-05-02T04:35:49.832Z,16.16
2023-05-02T04:38:21.845Z,16.15
2023-05-02T04:40:54.110Z,16.07
2023-05-02T04:43:31.083Z,16.04
2023-05-02T04:46:07.760Z,16.12
2023-05-02T04:48:42.831Z,16.30
2023-05-02T04:51:17.189Z,16.41
2023-05-02T04:53:51.681Z,16.54
2023-05-02T04:56:24.991Z,16.73
2023-05-02T04:58:55.353Z,16.87
2023-05-02T05:01:28.968Z,17.07
2023-05-02T05:04:00.181Z,17.25
2023-05-02T05:06:33.209Z,17.32
2023-05-02T05:09:04.159Z,17.35
2023-05-02T05:11:34.540Z,17.54
2023-05-02T05:14:06.033Z,17.79
2023-05-02T05:16:42.067Z,17.95
2023-05-02T05:19:12.866Z,18.02
2023-05-02T05:21:48.496Z,18.08
2023-05-02T05:24:21.367Z,18.25
2023-05-02T05:26:53.229Z,18.46
2023-05-02T05:29:23.727Z,18.59
2023-05-02T05:31:55.869Z,18.66
2023-05-02T05:34:27.268Z,18.74
2023-05-02T05:37:03.700Z,18.85
2023-05-02T05:39:42.626Z,18.98
2023-05-02T05:42:13.379Z,19.20
2023-05-02T05:44:48.667Z,19.44
2023-05-02T05:47:23.058Z,19.73
2023-05-02T05:50:01.308Z,19.90
2023-05-02T05:52:37.921Z,20.02
2023-05-02T05:55:14.899Z,20.13
2023-05-02T05:57:47.453Z,20.24
2023-05-02T06:00:21.574Z,20.29
2023-05-02T06:02:57.358Z,20.22
2023-05-02T06:05:34.659Z,20.29
2023-05-02T06:08:07.945Z,20.57
2023-05-02T06:10:38.073Z,20.78
2023-05-02T06:13:08.641Z,20.96
2023-05-02T06:15:50.428Z,21.02
2023-05-02T06:18:20.825Z,21.09
2023-05-02T06:20:53.635Z,21.23
2023-05-02T06:23:32.309Z,21.39
2023-05-02T06:26:02.800Z,21.27
2023-05-02T06:28:33.451Z,21.50
2023-05-02T06:31:17.222Z,21.76
2023-05-02T06:33:47.440Z,21.97
2023-05-02T06:36:17.863Z,22.23
2023-05-02T06:38:50.795Z,22.50
2023-05-02T06:41:23.774Z,22.78
2023-05-02T06:43:53.928Z,23.02
2023-05-02T06:46:24.124Z,23.27
2023-05-02T06:48:56.850Z,23.44
2023-05-02T06:51:30.028Z,23.64
2023-05-02T06:54:02.870Z,23.93
2023-05-02T06:56:36.125Z,24.19
2023-05-02T06:59:07.349Z,24.35
2023-05-02T07:01:37.728Z,24.43
2023-05-02T07:04:08.391Z,24.28
2023-05-02T07:06:38.786Z,24.10
2023-05-02T07:09:14.540Z,24.22
2023-05-02T07:11:44.838Z,24.59
2023-05-02T07:14:14.993Z,24.96
2023-05-02T07:16:45.413Z,24.86
2023-05-02T07:19:17.623Z,24.45
2023-05-02T07:21:47.997Z,24.02
2023-05-02T07:24:20.991Z,23.78
2023-05-02T07:26:51.121Z,23.59
2023-05-02T07:29:21.277Z,23.26
2023-05-02T07:32:09.828Z,23.04
2023-05-02T07:34:41.314Z,23.22
2023-05-02T07:37:11.935Z,23.35
2023-05-02T07:39:44.717Z,23.84
2023-05-02T07:42:14.892Z,24.58
2023-05-02T07:44:53.856Z,24.83
2023-05-02T07:47:23.999Z,24.84
2023-05-02T07:49:54.575Z,24.67
2023-05-02T07:52:24.992Z,24.39
2023-05-02T07:54:57.795Z,24.11
2023-05-02T07:57:30.081Z,23.89
2023-05-02T08:00:00.409Z,23.61
2023-05-02T08:02:40.024Z,23.35
2023-05-02T08:05:11.294Z,22.88
2023-05-02T08:07:41.432Z,22.29
2023-05-02T08:10:14.437Z,21.87
2023-05-02T08:12:45.425Z,21.52
2023-05-02T08:15:16.468Z,21.22
2023-05-02T08:17:46.601Z,20.97
2023-05-02T08:20:16.994Z,20.74
2023-05-02T08:22:47.327Z,20.70
2023-05-02T08:25:20.020Z,20.68
2023-05-02T08:27:50.112Z,20.82
2023-05-02T08:30:20.183Z,20.99
2023-05-02T08:32:50.386Z,21.09
2023-05-02T08:35:20.651Z,21.24
2023-05-02T08:37:50.754Z,21.30
2023-05-02T08:40:40.565Z,21.26
2023-05-02T08:43:28.650Z,21.19
2023-05-02T08:46:02.819Z,20.97
2023-05-02T08:48:34.006Z,20.77
2023-05-02T08:51:05.626Z,20.41
2023-05-02T08:53:38.035Z,20.29
2023-05-02T08:56:11.877Z,20.23
2023-05-02T08:58:44.132Z,20.28
2023-05-02T09:01:41.185Z,20.33
2023-05-02T09:04:12.414Z,20.23
2023-05-02T09:07:00.866Z,20.24
2023-05-02T09:09:39.393Z,20.07
2023-05-02T09:12:12.369Z,20.18
2023-05-02T09:14:42.616Z,20.27
2023-05-02T09:17:12.910Z,20.21
2023-05-02T09:19:43.017Z,20.26
2023-05-02T09:22:13.604Z,20.11
2023-05-02T09:24:44.128Z,19.99
2023-05-02T09:27:17.135Z,19.99
2023-05-02T09:29:47.464Z,20.18
2023-05-02T09:32:17.876Z,20.38
2023-05-02T09:35:08.417Z,21.09
2023-05-02T09:37:38.997Z,22.46
2023-05-02T09:40:13.228Z,23.01
2023-05-02T09:42:46.196Z,22.72
2023-05-02T09:45:23.895Z,22.23
2023-05-02T09:47:55.213Z,21.80
2023-05-02T09:50:38.423Z,21.40
2023-05-02T09:53:11.454Z,21.12
2023-05-02T09:55:44.596Z,21.06
2023-05-02T09:58:26.717Z,21.12
2023-05-02T10:00:56.892Z,21.03
2023-05-02T10:03:28.554Z,20.76
2023-05-02T10:05:59.801Z,20.62
2023-05-02T10:08:31.536Z,20.48
2023-05-02T10:11:11.512Z,20.36
2023-05-02T10:13:49.226Z,20.46
2023-05-02T10:16:31.402Z,20.77
2023-05-02T10:19:06.698Z,20.97
2023-05-02T10:21:37.702Z,21.13
2023-05-02T10:24:09.325Z,21.32
2023-05-02T10:26:39.887Z,21.60
2023-05-02T10:29:14.354Z,22.03
2023-05-02T10:31:46.441Z,21.91
2023-05-02T10:34:17.482Z,21.63
2023-05-02T10:36:47.702Z,21.11
2023-05-02T10:39:19.784Z,20.76
2023-05-02T10:41:50.074Z,20.59
2023-05-02T10:44:35.945Z,20.36
2023-05-02T10:47:21.987Z,20.33
2023-05-02T10:49:56.224Z,20.32
2023-05-02T10:52:30.651Z,20.52
2023-05-02T10:55:23.534Z,20.75
2023-05-02T10:58:24.608Z,21.08
2023-05-02T11:00:57.412Z,20.85
2023-05-02T11:03:58.538Z,20.45
2023-05-02T11:06:29.938Z,20.18
2023-05-02T11:09:29.951Z,20.11
2023-05-02T11:12:01.607Z,20.12
2023-05-02T11:14:51.544Z,20.10
2023-05-02T11:17:25.137Z,20.03
2023-05-02T11:20:31.652Z,19.92
2023-05-02T11:23:26.296Z,19.96
2023-05-02T11:26:00.642Z,20.19
2023-05-02T11:28:48.433Z,20.12
2023-05-02T11:31:49.027Z,20.11
2023-05-02T11:34:22.316Z,19.98
2023-05-02T11:36:52.419Z,19.93
2023-05-02T11:39:23.758Z,19.99
2023-05-02T11:41:55.152Z,19.90
2023-05-02T11:44:25.353Z,19.83
2023-05-02T11:46:56.129Z,19.81
2023-05-02T11:49:28.915Z,20.30
2023-05-02T11:51:58.969Z,21.43
2023-05-02T11:54:29.386Z,21.74
2023-05-02T11:56:59.510Z,21.60
2023-05-02T11:59:29.554Z,21.49
2023-05-02T12:01:59.599Z,21.43
2023-05-02T12:04:32.588Z,21.24
2023-05-02T12:07:03.125Z,20.85
2023-05-02T12:09:33.233Z,20.51
2023-05-02T12:12:03.702Z,20.40
2023-05-02T12:14:35.947Z,20.39
2023-05-02T12:17:07.489Z,20.32
2023-05-02T12:19:40.304Z,20.36
2023-05-02T12:22:10.919Z,20.29
2023-05-02T12:24:44.561Z,20.20
2023-05-02T12:27:18.142Z,20.09
2023-05-02T12:29:50.021Z,20.12
2023-05-02T12:32:32.147Z,20.14
2023-05-02T12:35:07.337Z,20.02
2023-05-02T12:37:37.507Z,19.94
2023-05-02T12:40:18.980Z,20.04
2023-05-02T12:43:04.358Z,20.19
2023-05-02T12:45:35.027Z,20.18
2023-05-02T12:48:05.763Z,20.20
2023-05-02T12:50:42.784Z,20.35
2023-05-02T12:53:13.061Z,20.66
2023-05-02T12:55:43.530Z,21.22
2023-05-02T12:58:17.054Z,21.52
2023-05-02T13:00:47.875Z,21.56
2023-05-02T13:03:21.735Z,21.74
2023-05-02T13:05:57.341Z,23.58
2023-05-02T13:08:27.426Z,26.69
2023-05-02T13:10:57.905Z,28.20
2023-05-02T13:13:28.230Z,28.26
2023-05-02T13:15:58.372Z,29.36
2023-05-02T13:18:28.525Z,28.44
2023-05-02T13:21:01.284Z,26.61
2023-05-02T13:23:33.201Z,26.21
2023-05-02T13:26:04.490Z,26.74
2023-05-02T13:28:35.939Z,25.74
2023-05-02T13:31:08.305Z,24.76
2023-05-02T13:33:38.479Z,23.88
2023-05-02T13:36:11.394Z,23.13
2023-05-02T13:38:41.487Z,22.42
2023-05-02T13:41:11.618Z,22.39
2023-05-02T13:43:41.979Z,22.63
2023-05-02T13:46:12.081Z,22.81
2023-05-02T13:48:42.176Z,22.83
2023-05-02T13:51:19.569Z,22.46
2023-05-02T13:53:49.658Z,22.22
2023-05-02T13:56:20.181Z,21.98
2023-05-02T13:58:50.245Z,21.69
2023-05-02T14:01:36.325Z,21.67
2023-05-02T14:04:09.204Z,21.47
2023-05-02T14:06:42.181Z,21.32
2023-05-02T14:09:13.771Z,21.31
2023-05-02T14:11:45.636Z,21.18
2023-05-02T14:14:15.734Z,21.00
2023-05-02T14:16:46.680Z,20.81
2023-05-02T14:19:18.279Z,20.79
2023-05-02T14:21:51.047Z,20.90
2023-05-02T14:24:21.180Z,20.70
2023-05-02T14:26:51.251Z,20.34
2023-05-02T14:29:21.423Z,20.14
2023-05-02T14:31:51.554Z,19.83
2023-05-02T14:34:22.188Z,19.66
2023-05-02T14:36:54.974Z,19.71
2023-05-02T14:39:25.268Z,19.86
2023-05-02T14:41:55.397Z,19.83
2023-05-02T14:44:25.478Z,19.79
2023-05-02T14:46:57.790Z,19.57
2023-05-02T14:49:28.033Z,19.27
2023-05-02T14:52:00.847Z,19.02
2023-05-02T14:54:31.543Z,18.83
2023-05-02T14:57:02.403Z,18.78
2023-05-02T14:59:32.926Z,18.66
2023-05-02T15:02:02.997Z,18.60
2023-05-02T15:04:33.913Z,18.49
2023-05-02T15:07:07.241Z,18.32
2023-05-02T15:09:37.438Z,18.26
2023-05-02T15:12:08.111Z,18.18
2023-05-02T15:14:38.215Z,18.15
2023-05-02T15:17:08.280Z,18.18
2023-05-02T15:19:42.693Z,18.21
2023-05-02T15:22:18.436Z,18.23
2023-05-02T15:24:48.765Z,18.18
2023-05-02T15:27:18.999Z,17.95
2023-05-02T15:29:51.370Z,17.64
2023-05-02T15:32:23.781Z,17.51
2023-05-02T15:34:55.443Z,17.43
2023-05-02T15:37:31.996Z,17.35
2023-05-02T15:40:05.243Z,17.42
2023-05-02T15:42:38.765Z,17.53
2023-05-02T15:45:24.377Z,17.59
2023-05-02T15:47:54.522Z,17.57
2023-05-02T15:50:25.742Z,17.62
2023-05-02T15:52:58.777Z,17.72
2023-05-02T15:55:29.069Z,17.81
2023-05-02T15:57:59.267Z,18.04
2023-05-02T16:00:29.534Z,18.30
2023-05-02T16:03:00.476Z,18.39
2023-05-02T16:05:32.024Z,18.48
2023-05-02T16:08:04.995Z,18.53
2023-05-02T16:10:36.751Z,18.56
2023-05-02T16:13:09.161Z,18.57
2023-05-02T16:15:43.364Z,18.50
2023-05-02T16:18:13.636Z,18.40
2023-05-02T16:20:47.904Z,18.29
2023-05-02T16:23:24.799Z,18.20
2023-05-02T16:26:00.603Z,18.15
2023-05-02T16:28:30.970Z,18.12
2023-05-02T16:31:16.265Z,17.91
2023-05-02T16:33:46.785Z,17.56
2023-05-02T16:36:17.623Z,17.40
2023-05-02T16:38:50.506Z,17.29
2023-05-02T16:41:21.605Z,17.23
2023-05-02T16:43:52.693Z,17.18
2023-05-02T16:46:22.798Z,17.05
2023-05-02T16:48:52.907Z,16.84
2023-05-02T16:51:23.039Z,16.71
2023-05-02T16:53:55.827Z,16.60
2023-05-02T16:56:25.948Z,16.54
2023-05-02T16:58:56.106Z,16.53
2023-05-02T17:01:26.647Z,16.49
2023-05-02T17:03:56.764Z,16.48
2023-05-02T17:06:28.650Z,16.43
2023-05-02T17:09:05.435Z,16.42
2023-05-02T17:11:43.230Z,16.30
2023-05-02T17:14:13.929Z,16.31
2023-05-02T17:16:55.580Z,16.24
2023-05-02T17:19:31.519Z,16.15
2023-05-02T17:22:04.098Z,16.08
2023-05-02T17:24:44.086Z,16.08
2023-05-02T17:27:16.426Z,16.16
2023-05-02T17:29:46.577Z,16.07
2023-05-02T17:32:46.996Z,16.00
2023-05-02T17:35:20.317Z,15.95
2023-05-02T17:37:50.711Z,15.91
2023-05-02T17:40:27.697Z,15.91
2023-05-02T17:43:00.874Z,15.99
2023-05-02T17:45:41.660Z,16.14
2023-05-02T17:48:11.965Z,16.23
2023-05-02T17:50:42.951Z,16.34
2023-05-02T17:53:21.063Z,16.39
2023-05-02T17:56:00.398Z,16.39
2023-05-02T17:58:32.820Z,16.36
2023-05-02T18:01:14.158Z,16.27
2023-05-02T18:03:47.563Z,16.15
2023-05-02T18:06:24.682Z,16.18
2023-05-02T18:08:59.705Z,16.26
2023-05-02T18:11:51.752Z,16.26
2023-05-02T18:14:22.785Z,16.23
2023-05-02T18:16:55.179Z,16.16
2023-05-02T18:19:26.144Z,16.14
2023-05-02T18:22:01.193Z,16.06
2023-05-02T18:24:37.363Z,16.03
2023-05-02T18:27:11.268Z,16.04
2023-05-02T18:29:44.275Z,16.06
2023-05-02T18:32:19.881Z,16.05
2023-05-02T18:34:59.950Z,16.06
2023-05-02T18:37:31.787Z,16.08
2023-05-02T18:40:03.699Z,16.07
2023-05-02T18:42:38.053Z,16.01
2023-05-02T18:45:13.738Z,15.97
2023-05-02T18:47:49.243Z,15.97
2023-05-02T18:50:22.278Z,15.91
2023-05-02T18:52:52.467Z,15.85
2023-05-02T18:55:25.161Z,15.84
2023-05-02T18:58:01.805Z,15.86
2023-05-02T19:00:36.910Z,15.89
2023-05-02T19:03:16.946Z,15.88
2023-05-02T19:05:50.415Z,15.76
2023-05-02T19:08:26.843Z,15.65
2023-05-02T19:11:09.425Z,15.63
2023-05-02T19:13:47.031Z,15.68
2023-05-02T19:16:44.240Z,15.69
2023-05-02T19:19:14.452Z,15.72
2023-05-02T19:21:51.215Z,15.79
2023-05-02T19:24:22.862Z,15.82
2023-05-02T19:26:54.613Z,15.81
2023-05-02T19:29:31.274Z,15.78
2023-05-02T19:32:06.827Z,15.69
2023-05-02T19:34:42.406Z,15.68
2023-05-02T19:37:17.811Z,15.74
2023-05-02T19:39:50.684Z,15.78
2023-05-02T19:42:30.040Z,15.81
2023-05-02T19:45:03.089Z,15.81
2023-05-02T19:47:34.036Z,15.82
2023-05-02T19:50:15.960Z,15.82
2023-05-02T19:52:47.902Z,15.83
2023-05-02T19:55:18.906Z,15.73
2023-05-02T19:57:53.274Z,15.67
2023-05-02T20:00:27.624Z,15.69
2023-05-02T20:03:05.414Z,15.71
2023-05-02T20:05:37.383Z,15.69
2023-05-02T20:08:10.559Z,15.70
2023-05-02T20:10:43.872Z,15.69
2023-05-02T20:13:18.648Z,15.72
2023-05-02T20:15:57.693Z,15.76
2023-05-02T20:18:31.185Z,15.77
2023-05-02T20:21:06.574Z,15.75
2023-05-02T20:23:40.499Z,15.73
2023-05-02T20:26:31.882Z,15.63
2023-05-02T20:29:17.200Z,15.54
2023-05-02T20:31:51.348Z,15.53
2023-05-02T20:34:22.172Z,15.52
2023-05-02T20:36:56.219Z,15.43
2023-05-02T20:39:27.193Z,15.31
2023-05-02T20:41:58.373Z,15.21
2023-05-02T20:44:38.256Z,15.16
2023-05-02T20:47:14.068Z,15.04
2023-05-02T20:49:44.193Z,15.02
2023-05-02T20:52:15.715Z,15.05
2023-05-02T20:55:09.684Z,15.08
2023-05-02T20:57:40.144Z,15.05
2023-05-02T21:00:13.855Z,15.01
2023-05-02T21:02:56.655Z,15.01
2023-05-02T21:05:28.905Z,14.91
2023-05-02T21:08:07.942Z,14.81
2023-05-02T21:10:38.689Z,14.79
2023-05-02T21:13:14.061Z,14.76
2023-05-02T21:15:49.397Z,14.72
2023-05-02T21:18:30.162Z,14.71
2023-05-02T21:21:02.650Z,14.77
2023-05-02T21:23:35.685Z,14.82
2023-05-02T21:26:07.317Z,14.86
2023-05-02T21:28:52.786Z,14.83
2023-05-02T21:31:23.028Z,14.78
2023-05-02T21:33:59.978Z,14.79
2023-05-02T21:36:44.878Z,14.78
2023-05-02T21:39:15.655Z,14.81
2023-05-02T21:41:56.445Z,14.69
2023-05-02T21:44:30.883Z,14.62
2023-05-02T21:47:03.860Z,14.55
2023-05-02T21:52:39.238Z,14.44
2023-05-02T21:55:11.379Z,14.46
2023-05-02T21:57:44.740Z,14.45
2023-05-02T22:00:16.383Z,14.41
2023-05-02T22:02:47.140Z,14.34
2023-05-02T22:05:20.251Z,14.30
2023-05-02T22:07:53.212Z,14.31
2023-05-02T22:10:23.772Z,14.31
2023-05-02T22:12:56.728Z,14.33
2023-05-02T22:15:38.209Z,14.31
2023-05-02T22:18:10.590Z,14.25
2023-05-02T22:20:43.460Z,14.23
2023-05-02T22:23:14.550Z,14.22
2023-05-02T22:25:46.499Z,14.21
2023-05-02T22:28:16.706Z,14.17
2023-05-02T22:30:46.917Z,14.12
2023-05-02T22:33:17.174Z,14.09
2023-05-02T22:35:49.853Z,14.08
2023-05-02T22:38:20.222Z,14.09
2023-05-02T22:40:50.339Z,14.05
2023-05-02T22:43:20.533Z,13.97
2023-05-02T22:45:51.474Z,13.97
2023-05-02T22:48:22.016Z,14.04
2023-05-02T22:50:55.294Z,14.09
2023-05-02T22:53:26.287Z,14.09
2023-05-02T22:55:56.682Z,14.14
2023-05-02T22:58:26.832Z,14.11
2023-05-02T23:00:57.157Z,14.03
2023-05-02T23:03:27.414Z,14.01
2023-05-02T23:06:00.436Z,13.98
2023-05-02T23:08:30.634Z,13.92
2023-05-02T23:11:00.839Z,13.90
2023-05-02T23:13:31.327Z,13.92
2023-05-02T23:16:01.806Z,13.95
2023-05-02T23:18:31.949Z,13.96
2023-05-02T23:21:05.837Z,14.04
2023-05-02T23:23:35.874Z,14.08
2023-05-02T23:26:05.891Z,14.06
2023-05-02T23:28:36.131Z,13.99
2023-05-02T23:31:07.034Z,13.99
2023-05-02T23:33:37.832Z,13.99
2023-05-02T23:36:11.438Z,14.01
2023-05-02T23:38:41.620Z,13.98
2023-05-02T23:41:11.869Z,13.96
2023-05-02T23:43:42.294Z,13.92
2023-05-02T23:46:12.661Z,13.87
2023-05-02T23:48:42.754Z,13.83
2023-05-02T23:51:18.382Z,13.79
2023-05-02T23:53:48.382Z,13.75
2023-05-02T23:56:18.388Z,13.71
2023-05-02T23:58:48.970Z,13.76
